Skip Navigation Links
NOAA logo - Click to go to the NOAA homepage
NOAA's National Weather Service
Alaska Aviation Weather Unit
  NWS logo - Click to go to the NWS homepage
Left Navbar Graphic     09 AKDT = 17 GMT

   
NOAA is celebrating 200 years of science, service, and stewardship. Visit the NOAA 200th celebration Web site to learn more.
USA.gov is the U.S. Government's official Web portal to all Federal, state and local government Web resources and services.
Facebook
NWS on Facebook

Important Change Regarding the AAWU Web Presence

 

Over the last several months, the AAWU has been working to navigate its webpages to a nationally supported server. Security, as well as other needs, have necessitated the change.  In the process, we have made an effort to enhance the functionality of our website, as well as some of our products. As of June 20, 2017, aawu.arh.noaa.gov will be discontinued. The new AAWU web address is weather.gov/aawu. It is now live and will run in-parallel with the old site until it is discontinued. Please send any feedback or questions regarding the new webpages to nws.ar.aawu.webauthors@noaa.gov.  Thank you for your patience during this time of transition.
AAWU Home :: Display TAF Add Bookmark
METAR PAVL 231153Z AUTO 03009KT 10SM FEW075 BKN100 01/M02 A2971 RMK AO2
     SLP060 6//// 7//// T00061017 10044 20006 50000 TSNO PNO $=

METAR PAVL 231253Z AUTO 04011KT 10SM FEW100 01/M02 A2970 RMK AO2 SLP057
     T00061022 TSNO PNO $=

METAR PAVL 231353Z AUTO 04012KT 10SM FEW075 BKN100 02/M02 A2969 RMK AO2
     SLP054 T00171022 TSNO PNO $=

METAR PAVL 231453Z AUTO 04010KT 10SM SCT070 BKN110 02/M02 A2969 RMK AO2
     SLP054 6//// T00221022 56006 TSNO PNO $=

METAR PAVL 231553Z AUTO 06008KT 10SM BKN065 BKN075 OVC100 03/M02
 A2969 RMK AO2 SLP053 T00281017 TSNO PNO $=

METAR PAVL 231653Z AUTO 04004KT 10SM BKN070 OVC085 03/M01 A2969 RMK AO2
     SLP052 T00331011 TSNO PNO $=


NOAA's National Weather Service
Alaska Aviation Weather Unit
6930 Sand Lake Road
Anchorage, AK 99502-1845
Disclaimer
Credits
Glossary
Privacy Policy
About Us
Career Opportunities
Contact AAWU Internet Services Site last modified: April, 17th 2012